createdAt,value
2018-07-05T00:00:14.714Z,0.00
2018-07-05T00:01:14.691Z,0.00
2018-07-05T00:02:14.661Z,0.00
2018-07-05T00:03:14.635Z,0.00
2018-07-05T00:04:14.609Z,0.00
2018-07-05T00:05:14.624Z,0.00
2018-07-05T00:06:14.562Z,0.00
2018-07-05T00:07:14.536Z,0.00
2018-07-05T00:08:14.515Z,0.00
2018-07-05T00:09:14.490Z,0.00
2018-07-05T00:10:14.466Z,0.00
2018-07-05T00:11:14.441Z,0.00
2018-07-05T00:12:14.415Z,0.00
2018-07-05T00:13:14.393Z,0.00
2018-07-05T00:14:14.367Z,0.00
2018-07-05T00:15:14.343Z,0.00
2018-07-05T00:16:14.469Z,0.00
2018-07-05T00:17:14.298Z,0.00
2018-07-05T00:18:14.270Z,0.00
2018-07-05T00:19:14.245Z,0.00
2018-07-05T00:20:14.231Z,0.00
2018-07-05T00:21:14.199Z,0.00
2018-07-05T00:22:14.173Z,0.00
2018-07-05T00:23:14.148Z,0.00
2018-07-05T00:24:14.126Z,0.00
2018-07-05T00:25:14.098Z,0.00
2018-07-05T00:26:14.074Z,0.00
2018-07-05T00:27:14.051Z,0.00
2018-07-05T00:28:14.027Z,0.00
2018-07-05T00:29:14.004Z,0.00
2018-07-05T00:30:13.982Z,0.00
2018-07-05T00:31:13.953Z,0.00
2018-07-05T00:32:13.930Z,0.00
2018-07-05T00:33:13.908Z,0.00
2018-07-05T00:34:13.893Z,0.00
2018-07-05T00:35:13.856Z,0.00
2018-07-05T00:36:13.831Z,0.00
2018-07-05T00:37:13.807Z,0.00
2018-07-05T00:38:13.782Z,0.00
2018-07-05T00:39:13.961Z,0.00
2018-07-05T00:40:13.886Z,0.00
2018-07-05T00:41:13.913Z,0.00
2018-07-05T00:42:13.693Z,0.00
2018-07-05T00:43:13.660Z,0.00
2018-07-05T00:44:13.636Z,0.00
2018-07-05T00:45:13.618Z,0.00
2018-07-05T00:46:13.584Z,0.00
2018-07-05T00:47:13.561Z,0.00
2018-07-05T00:48:13.539Z,0.00
2018-07-05T00:49:13.521Z,0.00
2018-07-05T00:50:16.715Z,0.00
2018-07-05T00:51:13.671Z,0.00
2018-07-05T00:52:13.439Z,0.00
2018-07-05T00:53:13.417Z,0.00
2018-07-05T00:54:13.391Z,0.00
2018-07-05T00:55:13.366Z,0.00
2018-07-05T00:56:13.343Z,0.00
2018-07-05T00:57:13.314Z,0.00
2018-07-05T00:58:13.291Z,0.00
2018-07-05T00:59:13.266Z,0.00
2018-07-05T01:00:13.244Z,0.00
2018-07-05T01:01:13.220Z,0.00
2018-07-05T01:02:13.194Z,0.00
2018-07-05T01:03:13.170Z,0.00
2018-07-05T01:04:13.148Z,0.00
2018-07-05T01:05:13.123Z,0.00
2018-07-05T01:06:13.096Z,0.00
2018-07-05T01:07:13.072Z,0.00
2018-07-05T01:08:13.045Z,0.00
2018-07-05T01:09:13.021Z,0.00
2018-07-05T01:10:12.996Z,0.00
2018-07-05T01:11:12.970Z,0.00
2018-07-05T01:12:12.949Z,0.00
2018-07-05T01:13:12.924Z,0.00
2018-07-05T01:14:12.898Z,0.00
2018-07-05T01:15:12.876Z,0.00
2018-07-05T01:16:12.849Z,0.00
2018-07-05T01:17:12.825Z,0.00
2018-07-05T01:18:12.799Z,0.00
2018-07-05T01:19:12.779Z,0.00
2018-07-05T01:20:12.751Z,0.00
2018-07-05T01:21:12.731Z,0.00
2018-07-05T01:22:12.700Z,0.00
2018-07-05T01:23:12.677Z,0.00
2018-07-05T01:24:12.654Z,0.00
2018-07-05T01:25:12.631Z,0.00
2018-07-05T01:27:37.122Z,0.00
2018-07-05T01:28:37.083Z,0.00
2018-07-05T01:29:36.857Z,0.00
2018-07-05T01:30:36.830Z,0.00
2018-07-05T01:31:36.807Z,0.00
2018-07-05T01:32:36.780Z,0.00
2018-07-05T01:33:36.756Z,0.00
2018-07-05T01:34:36.735Z,0.00
2018-07-05T01:35:36.714Z,0.00
2018-07-05T01:36:36.686Z,0.00
2018-07-05T01:37:36.658Z,0.00
2018-07-05T01:38:36.632Z,0.00
2018-07-05T01:39:36.606Z,0.00
2018-07-05T01:40:36.582Z,0.00
2018-07-05T01:41:36.562Z,0.00
2018-07-05T01:42:36.535Z,0.00
2018-07-05T01:43:36.510Z,0.00
2018-07-05T01:44:36.486Z,0.00
2018-07-05T01:45:36.460Z,0.00
2018-07-05T01:46:36.451Z,0.00
2018-07-05T01:47:36.413Z,0.00
2018-07-05T01:48:36.387Z,0.00
2018-07-05T01:49:36.363Z,0.00
2018-07-05T01:50:36.337Z,0.00
2018-07-05T01:51:36.312Z,0.00
2018-07-05T01:52:36.287Z,0.00
2018-07-05T01:53:36.262Z,0.00
2018-07-05T01:54:36.240Z,0.00
2018-07-05T01:55:36.215Z,0.00
2018-07-05T01:56:36.191Z,0.00
2018-07-05T01:57:36.166Z,0.00
2018-07-05T01:58:36.150Z,4.00
2018-07-05T01:59:36.120Z,4.00
2018-07-05T02:00:36.092Z,4.00
2018-07-05T02:01:36.067Z,4.00
2018-07-05T02:02:36.042Z,0.00
2018-07-05T02:03:36.016Z,0.00
2018-07-05T02:04:35.991Z,4.00
2018-07-05T02:05:35.967Z,4.00
2018-07-05T02:06:35.948Z,4.00
2018-07-05T02:07:35.920Z,0.00
2018-07-05T02:08:35.894Z,4.00
2018-07-05T02:09:35.871Z,4.00
2018-07-05T02:10:35.848Z,4.00
2018-07-05T02:11:35.821Z,4.00
2018-07-05T02:12:35.793Z,8.00
2018-07-05T02:13:35.769Z,8.00
2018-07-05T02:14:35.753Z,4.00
2018-07-05T02:15:35.729Z,8.00
2018-07-05T02:16:35.702Z,8.00
2018-07-05T02:17:35.673Z,12.00
2018-07-05T02:18:35.648Z,12.00
2018-07-05T02:19:35.622Z,12.00
2018-07-05T02:20:35.597Z,16.00
2018-07-05T02:21:35.573Z,16.00
2018-07-05T02:22:35.546Z,20.00
2018-07-05T02:23:35.522Z,20.00
2018-07-05T02:24:35.499Z,20.00
2018-07-05T02:25:35.472Z,28.00
2018-07-05T02:26:35.454Z,28.00
2018-07-05T02:27:35.429Z,32.00
2018-07-05T02:28:35.399Z,36.00
2018-07-05T02:29:35.375Z,40.00
2018-07-05T02:30:35.351Z,44.00
2018-07-05T02:31:35.329Z,48.00
2018-07-05T02:32:35.299Z,52.00
2018-07-05T02:33:35.275Z,60.00
2018-07-05T02:34:35.253Z,68.00
2018-07-05T02:35:35.228Z,76.00
2018-07-05T02:36:35.202Z,84.00
2018-07-05T02:37:35.177Z,92.00
2018-07-05T02:38:35.151Z,100.00
2018-07-05T02:39:35.125Z,112.00
2018-07-05T02:40:35.101Z,124.00
2018-07-05T02:41:35.077Z,136.00
2018-07-05T02:42:35.054Z,148.00
2018-07-05T02:43:35.032Z,164.00
2018-07-05T02:44:35.013Z,176.00
2018-07-05T02:45:34.980Z,196.00
2018-07-05T02:46:34.962Z,212.00
2018-07-05T02:47:34.931Z,228.00
2018-07-05T02:48:34.912Z,252.00
2018-07-05T02:49:34.881Z,272.00
2018-07-05T02:50:34.878Z,296.00
2018-07-05T02:51:34.830Z,316.00
2018-07-05T02:52:34.805Z,340.00
2018-07-05T02:53:34.780Z,368.00
2018-07-05T02:54:34.758Z,396.00
2018-07-05T02:55:34.733Z,424.00
2018-07-05T02:56:34.708Z,456.00
2018-07-05T02:57:34.688Z,492.00
2018-07-05T02:58:34.662Z,524.00
2018-07-05T02:59:34.633Z,560.00
2018-07-05T03:00:34.607Z,596.00
2018-07-05T03:01:34.582Z,636.00
2018-07-05T03:02:34.560Z,676.00
2018-07-05T03:03:34.536Z,716.00
2018-07-05T03:04:34.507Z,764.00
2018-07-05T03:05:34.483Z,804.00
2018-07-05T03:06:34.459Z,852.00
2018-07-05T03:07:34.437Z,900.00
2018-07-05T03:08:34.410Z,952.00
2018-07-05T03:09:34.385Z,1004.00
2018-07-05T03:10:34.360Z,1056.00
2018-07-05T03:11:34.336Z,1112.00
2018-07-05T03:12:34.312Z,1164.00
2018-07-05T03:13:34.285Z,1224.00
2018-07-05T03:14:34.262Z,1280.00
2018-07-05T03:15:34.241Z,1344.00
2018-07-05T03:16:34.213Z,1408.00
2018-07-05T03:17:34.187Z,1468.00
2018-07-05T03:18:34.164Z,1536.00
2018-07-05T03:19:34.139Z,1604.00
2018-07-05T03:20:34.264Z,1672.00
2018-07-05T03:21:34.095Z,1744.00
2018-07-05T03:22:34.064Z,1812.00
2018-07-05T03:23:34.039Z,1884.00
2018-07-05T03:24:34.014Z,1952.00
2018-07-05T03:25:33.991Z,2032.00
2018-07-05T03:26:33.971Z,2108.00
2018-07-05T03:27:33.942Z,2192.00
2018-07-05T03:28:33.916Z,2280.00
2018-07-05T03:29:33.894Z,2368.00
2018-07-05T03:30:33.871Z,2464.00
2018-07-05T03:31:35.051Z,2552.00
2018-07-05T03:32:33.828Z,2648.00
2018-07-05T03:33:33.796Z,2736.00
2018-07-05T03:34:33.827Z,2824.00
2018-07-05T03:35:33.747Z,2912.00
2018-07-05T03:36:33.728Z,3000.00
2018-07-05T03:37:33.698Z,3092.00
2018-07-05T03:38:33.677Z,3168.00
2018-07-05T03:39:33.652Z,3256.00
2018-07-05T03:40:34.823Z,3348.00
2018-07-05T03:41:33.601Z,3448.00
2018-07-05T03:42:33.573Z,3568.00
2018-07-05T03:43:33.550Z,3704.00
2018-07-05T03:44:33.525Z,3832.00
2018-07-05T03:45:33.505Z,3936.00
2018-07-05T03:46:33.475Z,4040.00
2018-07-05T03:47:33.453Z,4140.00
2018-07-05T03:48:33.424Z,4248.00
2018-07-05T03:49:33.400Z,4352.00
2018-07-05T03:50:33.377Z,4400.00
2018-07-05T03:51:33.357Z,4452.00
2018-07-05T03:52:33.333Z,4480.00
2018-07-05T03:53:33.302Z,4740.00
2018-07-05T03:54:33.282Z,4736.00
2018-07-05T03:55:33.411Z,5080.00
2018-07-05T03:56:33.232Z,5080.00
2018-07-05T03:57:33.216Z,5508.00
2018-07-05T03:58:33.184Z,5644.00
2018-07-05T03:59:33.161Z,5524.00
2018-07-05T04:00:33.136Z,5936.00
2018-07-05T04:01:33.262Z,6104.00
2018-07-05T04:02:33.107Z,6264.00
2018-07-05T04:03:33.070Z,6380.00
2018-07-05T04:04:33.091Z,6536.00
2018-07-05T04:05:33.019Z,6668.00
2018-07-05T04:06:33.000Z,6456.00
2018-07-05T04:07:32.972Z,6736.00
2018-07-05T04:08:32.951Z,6436.00
2018-07-05T04:09:32.925Z,6596.00
2018-07-05T04:10:32.902Z,6676.00
2018-07-05T04:11:32.879Z,7300.00
2018-07-05T04:12:32.860Z,7892.00
2018-07-05T04:13:32.831Z,8132.00
2018-07-05T04:14:32.808Z,8280.00
2018-07-05T04:15:32.787Z,8640.00
2018-07-05T04:16:32.761Z,7244.00
2018-07-05T04:17:32.739Z,7056.00
2018-07-05T04:18:32.715Z,6808.00
2018-07-05T04:19:32.692Z,6852.00
2018-07-05T04:20:32.665Z,7412.00
2018-07-05T04:21:32.643Z,8700.00
2018-07-05T04:22:32.635Z,8360.00
2018-07-05T04:23:32.597Z,7980.00
2018-07-05T04:24:32.574Z,10224.00
2018-07-05T04:25:32.549Z,11440.00
2018-07-05T04:26:32.530Z,12176.00
2018-07-05T04:27:32.506Z,12604.00
2018-07-05T04:28:32.483Z,12132.00
2018-07-05T04:29:32.461Z,9860.00
2018-07-05T04:30:32.436Z,9892.00
2018-07-05T04:31:32.413Z,9640.00
2018-07-05T04:32:32.390Z,9148.00
2018-07-05T04:33:32.371Z,9524.00
2018-07-05T04:34:32.352Z,12804.00
2018-07-05T04:35:32.325Z,15168.00
2018-07-05T04:36:32.312Z,10948.00
2018-07-05T04:37:32.482Z,11412.00
2018-07-05T04:38:32.456Z,12128.00
2018-07-05T04:39:32.232Z,12884.00
2018-07-05T04:40:32.209Z,11152.00
2018-07-05T04:41:32.187Z,10272.00
2018-07-05T04:42:32.182Z,11212.00
2018-07-05T04:43:32.144Z,10276.00
2018-07-05T04:44:32.121Z,9900.00
2018-07-05T04:45:32.098Z,15712.00
2018-07-05T04:46:32.074Z,16896.00
2018-07-05T04:47:32.054Z,17056.00
2018-07-05T04:48:32.029Z,17408.00
2018-07-05T04:49:32.007Z,17632.00
2018-07-05T04:50:31.986Z,17408.00
2018-07-05T04:51:31.964Z,17216.00
2018-07-05T04:52:31.942Z,17952.00
2018-07-05T04:53:31.919Z,18528.00
2018-07-05T04:54:31.900Z,19232.00
2018-07-05T04:55:31.943Z,19392.00
2018-07-05T04:56:31.855Z,20416.00
2018-07-05T04:57:31.836Z,20896.00
2018-07-05T04:58:31.807Z,13256.00
2018-07-05T04:59:31.787Z,21664.00
2018-07-05T05:00:31.764Z,23232.00
2018-07-05T05:01:31.745Z,25088.00
2018-07-05T05:02:31.795Z,21152.00
2018-07-05T05:03:31.702Z,23776.00
2018-07-05T05:04:31.682Z,14496.00
2018-07-05T05:05:33.236Z,26080.00
2018-07-05T05:06:31.840Z,17952.00
2018-07-05T05:07:31.616Z,13756.00
2018-07-05T05:08:31.594Z,15028.00
2018-07-05T05:09:31.776Z,21056.00
2018-07-05T05:10:31.559Z,11504.00
2018-07-05T05:11:31.532Z,13592.00
2018-07-05T05:12:31.510Z,13204.00
2018-07-05T05:13:31.489Z,15076.00
2018-07-05T05:14:31.470Z,29920.00
2018-07-05T05:15:31.451Z,16468.00
2018-07-05T05:16:31.428Z,16552.00
2018-07-05T05:17:31.421Z,16408.00
2018-07-05T05:18:31.386Z,15244.00
2018-07-05T05:19:31.363Z,13532.00
2018-07-05T05:20:31.342Z,14400.00
2018-07-05T05:21:31.324Z,16428.00
2018-07-05T05:22:31.304Z,17120.00
2018-07-05T05:23:31.284Z,16180.00
2018-07-05T05:24:31.264Z,13808.00
2018-07-05T05:25:31.243Z,12752.00
2018-07-05T05:26:31.218Z,12888.00
2018-07-05T05:27:31.198Z,15584.00
2018-07-05T05:28:31.181Z,17984.00
2018-07-05T05:29:31.162Z,17728.00
2018-07-05T05:30:31.130Z,16552.00
2018-07-05T05:31:31.110Z,17568.00
2018-07-05T05:32:31.087Z,20544.00
2018-07-05T05:33:31.071Z,20512.00
2018-07-05T05:34:31.046Z,20576.00
2018-07-05T05:35:31.029Z,21504.00
2018-07-05T05:36:31.003Z,21248.00
2018-07-05T05:37:30.981Z,20736.00
2018-07-05T05:38:30.957Z,21312.00
2018-07-05T05:39:30.937Z,19712.00
2018-07-05T05:40:31.071Z,19136.00
2018-07-05T05:41:30.893Z,19296.00
2018-07-05T05:42:30.872Z,21152.00
2018-07-05T05:43:30.850Z,20352.00
2018-07-05T05:44:30.831Z,22208.00
2018-07-05T05:45:30.808Z,18784.00
2018-07-05T05:46:30.791Z,19424.00
2018-07-05T05:47:30.767Z,22656.00
2018-07-05T05:48:30.746Z,22720.00
2018-07-05T05:49:30.724Z,22336.00
2018-07-05T05:50:30.700Z,20544.00
2018-07-05T05:51:30.678Z,19008.00
2018-07-05T05:52:30.657Z,18080.00
2018-07-05T05:53:30.639Z,18944.00
2018-07-05T05:54:30.621Z,21760.00
2018-07-05T05:55:30.649Z,22976.00
2018-07-05T05:56:30.579Z,22784.00
2018-07-05T05:57:30.553Z,24672.00
2018-07-05T05:58:30.532Z,24512.00
2018-07-05T05:59:30.514Z,21920.00
2018-07-05T06:00:30.488Z,21152.00
2018-07-05T06:01:30.469Z,37600.00
2018-07-05T06:02:30.456Z,22784.00
2018-07-05T06:03:30.424Z,20832.00
2018-07-05T06:04:30.402Z,18688.00
2018-07-05T06:05:30.381Z,17360.00
2018-07-05T06:06:30.362Z,16716.00
2018-07-05T06:07:30.340Z,17428.00
2018-07-05T06:08:30.318Z,50048.00
2018-07-05T06:09:30.298Z,47904.00
2018-07-05T06:10:30.283Z,20736.00
2018-07-05T06:11:30.254Z,23488.00
2018-07-05T06:12:30.233Z,47136.00
2018-07-05T06:13:30.213Z,43872.00
2018-07-05T06:14:30.192Z,22592.00
2018-07-05T06:15:30.381Z,44032.00
2018-07-05T06:16:30.149Z,43584.00
2018-07-05T06:17:30.130Z,43616.00
2018-07-05T06:18:30.349Z,45888.00
2018-07-05T06:19:30.317Z,42240.00
2018-07-05T06:20:30.071Z,50080.00
2018-07-05T06:21:30.252Z,32640.00
2018-07-05T06:22:30.030Z,28832.00
2018-07-05T06:23:30.014Z,31264.00
2018-07-05T06:24:29.991Z,30048.00
2018-07-05T06:25:30.014Z,26336.00
2018-07-05T06:26:29.954Z,25696.00
2018-07-05T06:27:29.937Z,26624.00
2018-07-05T06:28:29.927Z,43168.00
2018-07-05T06:29:29.901Z,31424.00
2018-07-05T06:30:29.883Z,29952.00
2018-07-05T06:31:29.859Z,28832.00
2018-07-05T06:32:29.839Z,28928.00
2018-07-05T06:33:29.827Z,29120.00
2018-07-05T06:34:29.801Z,37088.00
2018-07-05T06:35:29.780Z,27936.00
2018-07-05T06:36:29.760Z,49216.00
2018-07-05T06:37:29.747Z,27712.00
2018-07-05T06:38:29.735Z,30080.00
2018-07-05T06:39:29.758Z,23520.00
2018-07-05T06:40:29.699Z,26592.00
2018-07-05T06:41:29.665Z,28864.00
2018-07-05T06:42:29.643Z,72800.00
2018-07-05T06:43:29.629Z,27200.00
2018-07-05T06:44:29.604Z,29120.00
2018-07-05T06:45:29.588Z,35008.00
2018-07-05T06:46:29.567Z,27296.00
2018-07-05T06:47:29.558Z,27840.00
2018-07-05T06:48:29.538Z,30016.00
2018-07-05T06:49:29.602Z,29984.00
2018-07-05T06:50:29.486Z,39712.00
2018-07-05T06:51:29.473Z,32736.00
2018-07-05T06:52:29.447Z,35136.00
2018-07-05T06:53:29.427Z,29056.00
2018-07-05T06:54:29.410Z,29408.00
2018-07-05T06:55:29.392Z,33760.00
2018-07-05T06:56:29.380Z,43648.00
2018-07-05T06:57:29.355Z,74688.00
2018-07-05T06:58:29.329Z,49472.00
2018-07-05T06:59:29.315Z,32672.00
2018-07-05T07:00:29.290Z,32640.00
2018-07-05T07:01:29.271Z,33472.00
2018-07-05T07:02:29.254Z,83520.00
2018-07-05T07:03:29.234Z,38496.00
2018-07-05T07:04:29.213Z,38304.00
2018-07-05T07:05:29.395Z,40768.00
2018-07-05T07:06:29.381Z,46432.00
2018-07-05T07:07:29.157Z,81568.00
2018-07-05T07:08:29.140Z,42176.00
2018-07-05T07:09:29.120Z,45152.00
2018-07-05T07:10:29.100Z,34048.00
2018-07-05T07:11:29.080Z,35360.00
2018-07-05T07:12:29.061Z,42496.00
2018-07-05T07:13:29.044Z,35776.00
2018-07-05T07:14:29.026Z,32000.00
2018-07-05T07:15:29.006Z,29760.00
2018-07-05T07:16:28.987Z,27680.00
2018-07-05T07:17:28.968Z,26144.00
2018-07-05T07:18:28.949Z,28192.00
2018-07-05T07:19:28.981Z,31872.00
2018-07-05T07:20:28.913Z,32928.00
2018-07-05T07:21:28.945Z,34464.00
2018-07-05T07:22:28.871Z,33408.00
2018-07-05T07:23:28.856Z,34752.00
2018-07-05T07:24:28.833Z,34240.00
2018-07-05T07:25:28.815Z,34656.00
2018-07-05T07:26:28.796Z,33248.00
2018-07-05T07:27:28.778Z,28128.00
2018-07-05T07:28:28.757Z,26464.00
2018-07-05T07:29:28.742Z,26720.00
2018-07-05T07:30:28.717Z,28416.00
2018-07-05T07:31:28.846Z,32000.00
2018-07-05T07:32:28.679Z,33984.00
2018-07-05T07:33:28.659Z,35552.00
2018-07-05T07:34:28.640Z,32512.00
2018-07-05T07:35:28.622Z,31168.00
2018-07-05T07:36:28.604Z,29696.00
2018-07-05T07:37:28.612Z,27552.00
2018-07-05T07:38:28.564Z,27008.00
2018-07-05T07:39:28.543Z,26432.00
2018-07-05T07:40:28.524Z,25888.00
2018-07-05T07:41:28.505Z,26208.00
2018-07-05T07:42:28.483Z,26016.00
2018-07-05T07:43:28.463Z,25056.00
2018-07-05T07:44:28.442Z,25728.00
2018-07-05T07:45:28.498Z,28800.00
2018-07-05T07:46:28.404Z,32320.00
2018-07-05T07:47:28.399Z,34496.00
2018-07-05T07:48:28.363Z,36032.00
2018-07-05T07:49:28.499Z,34208.00
2018-07-05T07:50:28.325Z,33408.00
2018-07-05T07:51:28.306Z,29440.00
2018-07-05T07:52:28.283Z,28832.00
2018-07-05T07:53:28.263Z,28608.00
2018-07-05T07:54:28.241Z,28992.00
2018-07-05T07:55:28.221Z,28448.00
2018-07-05T07:56:28.200Z,29248.00
2018-07-05T07:57:28.180Z,31616.00
2018-07-05T07:58:28.162Z,32832.00
2018-07-05T07:59:28.140Z,45088.00
2018-07-05T08:00:28.122Z,33408.00
2018-07-05T08:01:28.101Z,34240.00
2018-07-05T08:02:28.078Z,33920.00
2018-07-05T08:03:28.058Z,33408.00
2018-07-05T08:04:28.037Z,34784.00
2018-07-05T08:05:28.017Z,34976.00
2018-07-05T08:06:27.997Z,35264.00
2018-07-05T08:07:27.983Z,38080.00
2018-07-05T08:08:27.965Z,40608.00
2018-07-05T08:09:27.937Z,39264.00
2018-07-05T08:10:27.927Z,38944.00
2018-07-05T08:11:27.898Z,41376.00
2018-07-05T08:12:27.888Z,42912.00
2018-07-05T08:13:27.857Z,42816.00
2018-07-05T08:14:27.836Z,50848.00
2018-07-05T08:15:27.817Z,120160.00
2018-07-05T08:16:27.796Z,48256.00
2018-07-05T08:17:27.778Z,43552.00
2018-07-05T08:18:27.759Z,39648.00
2018-07-05T08:19:27.742Z,39008.00
2018-07-05T08:20:27.737Z,42208.00
2018-07-05T08:21:27.720Z,52736.00
2018-07-05T08:22:27.683Z,90240.00
2018-07-05T08:23:27.669Z,45888.00
2018-07-05T08:24:27.643Z,41280.00
2018-07-05T08:25:27.628Z,102816.00
2018-07-05T08:26:27.606Z,101728.00
2018-07-05T08:27:27.789Z,41376.00
2018-07-05T08:29:13.359Z,93184.00
2018-07-05T08:30:09.908Z,92736.00
2018-07-05T08:31:09.893Z,93664.00
2018-07-05T08:32:09.877Z,102912.00
2018-07-05T08:33:15.984Z,40608.00
2018-07-05T08:34:09.843Z,108256.00
2018-07-05T08:35:09.832Z,39072.00
2018-07-05T08:36:09.611Z,45760.00
2018-07-05T08:37:09.803Z,49728.00
2018-07-05T08:38:09.569Z,54144.00
2018-07-05T08:39:09.552Z,36864.00
2018-07-05T08:40:09.542Z,45856.00
2018-07-05T08:41:09.522Z,104128.00
2018-07-05T08:42:09.715Z,95392.00
2018-07-05T08:43:51.846Z,95968.00
2018-07-05T08:44:51.884Z,98528.00
2018-07-05T08:45:51.821Z,106784.00
2018-07-05T08:46:51.809Z,116512.00
2018-07-05T08:47:51.784Z,45216.00
2018-07-05T08:48:51.769Z,109472.00
2018-07-05T08:49:51.755Z,112928.00
2018-07-05T08:50:51.736Z,117088.00
2018-07-05T08:51:52.934Z,121760.00
2018-07-05T08:55:40.343Z,60224.00
2018-07-05T08:56:40.326Z,50784.00
2018-07-05T08:57:40.110Z,50304.00
2018-07-05T08:58:40.299Z,44096.00
2018-07-05T08:59:40.284Z,43008.00
2018-07-05T09:00:40.270Z,46336.00
2018-07-05T09:01:43.493Z,47360.00
2018-07-05T09:02:40.035Z,45472.00
2018-07-05T09:03:40.223Z,45728.00
2018-07-05T09:04:40.206Z,48864.00
2018-07-05T09:05:40.190Z,53888.00
2018-07-05T09:06:39.974Z,56800.00
2018-07-05T09:07:39.957Z,136800.00
2018-07-05T09:08:40.144Z,83456.00
2018-07-05T09:09:39.929Z,125792.00
2018-07-05T09:10:39.913Z,90240.00
2018-07-05T09:11:39.900Z,42688.00
2018-07-05T09:12:39.876Z,45888.00
2018-07-05T09:13:39.859Z,42688.00
2018-07-05T09:14:42.666Z,37504.00
2018-07-05T09:16:22.188Z,41504.00
2018-07-05T09:17:21.992Z,127648.00
2018-07-05T09:18:21.990Z,122560.00
2018-07-05T09:19:21.936Z,121632.00
2018-07-05T09:20:21.920Z,109888.00
2018-07-05T09:21:21.903Z,116672.00
2018-07-05T09:22:21.895Z,113536.00
2018-07-05T09:23:22.153Z,113856.00
2018-07-05T09:24:22.058Z,113952.00
2018-07-05T09:25:22.040Z,111200.00
2018-07-05T09:26:22.025Z,117920.00
2018-07-05T09:27:22.014Z,125376.00
2018-07-05T09:28:21.998Z,102528.00
2018-07-05T09:29:21.781Z,35936.00
2018-07-05T09:30:21.766Z,54304.00
2018-07-05T09:31:21.955Z,121184.00
2018-07-05T09:32:21.738Z,123392.00
2018-07-05T09:33:21.724Z,123616.00
2018-07-05T09:34:21.917Z,126336.00
2018-07-05T09:35:21.898Z,45600.00
2018-07-05T09:36:21.681Z,133120.00
2018-07-05T09:37:21.671Z,84896.00
2018-07-05T09:38:21.652Z,46720.00
2018-07-05T09:39:21.641Z,59008.00
2018-07-05T09:40:21.626Z,74816.00
2018-07-05T09:41:21.615Z,45984.00
2018-07-05T09:42:21.595Z,44384.00
2018-07-05T09:43:21.780Z,52384.00
2018-07-05T09:44:21.563Z,61120.00
2018-07-05T09:45:21.548Z,76480.00
2018-07-05T09:46:24.159Z,91648.00
2018-07-05T09:47:21.721Z,60960.00
2018-07-05T09:48:21.715Z,75552.00
2018-07-05T09:49:21.694Z,72320.00
2018-07-05T09:50:21.487Z,79648.00
2018-07-05T09:51:21.463Z,65856.00
2018-07-05T09:52:21.506Z,41600.00
2018-07-05T09:53:21.438Z,120928.00
2018-07-05T09:54:21.626Z,68960.00
2018-07-05T09:55:21.401Z,130528.00
2018-07-05T09:56:21.388Z,49088.00
2018-07-05T09:57:21.378Z,121440.00
2018-07-05T09:58:21.367Z,122752.00
2018-07-05T09:59:21.353Z,86400.00
2018-07-05T10:00:21.331Z,119968.00
2018-07-05T10:01:21.318Z,125152.00
2018-07-05T10:02:21.302Z,131136.00
2018-07-05T10:03:21.537Z,130848.00
2018-07-05T10:04:22.693Z,64448.00
2018-07-05T10:05:21.260Z,44448.00
2018-07-05T10:06:21.246Z,117280.00
2018-07-05T10:07:21.466Z,113632.00
2018-07-05T10:08:21.417Z,110880.00
2018-07-05T10:09:21.204Z,113952.00
2018-07-05T10:10:24.419Z,117856.00
2018-07-05T10:11:21.380Z,89536.00
2018-07-05T10:12:21.168Z,113792.00
2018-07-05T10:13:21.312Z,111936.00
2018-07-05T10:15:03.499Z,51552.00
2018-07-05T10:16:03.284Z,49632.00
2018-07-05T10:17:03.271Z,79104.00
2018-07-05T10:18:03.260Z,111872.00
2018-07-05T10:19:03.246Z,129824.00
2018-07-05T10:20:03.233Z,91104.00
2018-07-05T10:21:03.221Z,103296.00
2018-07-05T10:22:03.205Z,73888.00
2018-07-05T10:23:03.400Z,50464.00
2018-07-05T10:24:03.178Z,115136.00
2018-07-05T10:25:03.171Z,124448.00
2018-07-05T10:26:03.154Z,61728.00
2018-07-05T10:27:03.483Z,54144.00
2018-07-05T10:28:03.126Z,40544.00
2018-07-05T10:29:03.314Z,44320.00
2018-07-05T10:30:04.513Z,57984.00
2018-07-05T10:31:03.296Z,130656.00
2018-07-05T10:32:03.069Z,130144.00
2018-07-05T10:33:03.054Z,45568.00
2018-07-05T10:34:03.039Z,47872.00
2018-07-05T10:35:03.230Z,98912.00
2018-07-05T10:36:03.010Z,135040.00
2018-07-05T10:37:02.993Z,136832.00
2018-07-05T10:38:02.979Z,143616.00
2018-07-05T10:39:02.965Z,48480.00
2018-07-05T10:40:06.784Z,55264.00
2018-07-05T10:41:03.144Z,51264.00
2018-07-05T10:42:03.119Z,56768.00
2018-07-05T10:43:03.103Z,54048.00
2018-07-05T10:44:03.094Z,132928.00
2018-07-05T10:45:03.072Z,138560.00
2018-07-05T10:46:02.910Z,141120.00
2018-07-05T10:47:03.049Z,55872.00
2018-07-05T10:48:02.823Z,92352.00
2018-07-05T10:49:03.009Z,63520.00
2018-07-05T10:50:02.798Z,135360.00
2018-07-05T10:51:02.878Z,116928.00
2018-07-05T10:52:03.368Z,44064.00
2018-07-05T10:53:02.749Z,127552.00
2018-07-05T10:54:02.731Z,123584.00
2018-07-05T10:55:02.728Z,122016.00
2018-07-05T10:56:02.905Z,124480.00
2018-07-05T10:57:02.689Z,64352.00
2018-07-05T10:58:02.877Z,128352.00
2018-07-05T10:59:02.863Z,128992.00
2018-07-05T11:00:02.847Z,134656.00
2018-07-05T11:01:02.868Z,139808.00
2018-07-05T11:02:02.620Z,149376.00
2018-07-05T11:03:02.808Z,78208.00
2018-07-05T11:04:02.592Z,74848.00
2018-07-05T11:05:03.801Z,62336.00
2018-07-05T11:06:02.564Z,64224.00
2018-07-05T11:07:05.399Z,55040.00
2018-07-05T11:08:02.542Z,52128.00
2018-07-05T11:09:02.524Z,51264.00
2018-07-05T11:10:02.720Z,52160.00
2018-07-05T11:11:02.701Z,50272.00
2018-07-05T11:12:02.685Z,51328.00
2018-07-05T11:13:02.481Z,54112.00
2018-07-05T11:14:02.660Z,55520.00
2018-07-05T11:15:02.639Z,53088.00
2018-07-05T11:16:02.623Z,52160.00
2018-07-05T11:17:02.608Z,50976.00
2018-07-05T11:18:02.845Z,52064.00
2018-07-05T11:19:02.376Z,52512.00
2018-07-05T11:20:02.562Z,53664.00
2018-07-05T11:21:02.441Z,62784.00
2018-07-05T11:22:02.330Z,54816.00
2018-07-05T11:23:02.312Z,53440.00
2018-07-05T11:24:02.647Z,51168.00
2018-07-05T11:25:02.279Z,49920.00
2018-07-05T11:26:02.471Z,49312.00
2018-07-05T11:27:02.450Z,50560.00
2018-07-05T11:28:02.433Z,49920.00
2018-07-05T11:29:02.215Z,50624.00
2018-07-05T11:30:02.204Z,50752.00
2018-07-05T11:31:02.383Z,54624.00
2018-07-05T11:32:02.164Z,58432.00
2018-07-05T11:33:02.150Z,55744.00
2018-07-05T11:34:02.130Z,60032.00
2018-07-05T11:35:02.119Z,63488.00
2018-07-05T11:36:02.102Z,152544.00
2018-07-05T11:37:02.079Z,59840.00
2018-07-05T11:38:02.067Z,60928.00
2018-07-05T11:39:02.048Z,52160.00
2018-07-05T11:40:02.032Z,49856.00
2018-07-05T11:41:02.021Z,47360.00
2018-07-05T11:42:01.997Z,45824.00
2018-07-05T11:43:01.979Z,45568.00
2018-07-05T11:44:01.962Z,46048.00
2018-07-05T11:45:01.947Z,46016.00
2018-07-05T11:46:01.939Z,47200.00
2018-07-05T11:47:01.927Z,48576.00
2018-07-05T11:48:01.897Z,47104.00
2018-07-05T11:49:01.881Z,46080.00
2018-07-05T11:50:01.863Z,45440.00
2018-07-05T11:51:02.049Z,46048.00
2018-07-05T11:52:02.031Z,46624.00
2018-07-05T11:53:01.812Z,45600.00
2018-07-05T11:54:01.792Z,44512.00
2018-07-05T11:55:04.598Z,42816.00
2018-07-05T11:56:01.971Z,42944.00
2018-07-05T11:57:01.942Z,46464.00
2018-07-05T11:58:01.927Z,57472.00
2018-07-05T11:59:01.713Z,48960.00
2018-07-05T12:00:01.690Z,46880.00
2018-07-05T12:01:01.670Z,43680.00
2018-07-05T12:02:01.718Z,40928.00
2018-07-05T12:03:01.634Z,38400.00
2018-07-05T12:04:01.642Z,37216.00
2018-07-05T12:05:01.597Z,37696.00
2018-07-05T12:06:01.579Z,38080.00
2018-07-05T12:07:01.764Z,38432.00
2018-07-05T12:08:01.544Z,38720.00
2018-07-05T12:09:01.524Z,39744.00
2018-07-05T12:10:01.710Z,43616.00
2018-07-05T12:11:01.491Z,41888.00